Terminal Aerodrome Forecast
Issued by NWS

Home | Current Version | Previous Version | Text Only | Print | Product List | Glossary On
Versions: 1 2 3 4 5 6 7 8 9 10 11 12 13 14 15 16 17 18 19 20 21 22 23 24 25 26 27 28 29 30 31 32 33 34 35 36 37 38
000
FTUS45 KSLC 182102 AAA
TAFOGD
TAF AMD
KOGD 182102Z 1821/1918 27006KT 5SM HZ SCT200
     FM190200 17006KT 5SM BR SCT090 BKN200
     FM191100 19007KT P6SM VCSH SCT050 BKN090
     FM191400 VRB05KT 2SM -SHSN SCT010 BKN025=

USA.gov is the U.S. government's official web portal to all federal, state and local government web resources and services.